KFSM/FSM METAR and TAF weather

Enter ICAO airport designator
Station Type Date Time Source
KFSM METAR 2019/10/18 10:53 UTC NOAA

KFSM 181053Z 06004KT 10SM CLR 09/09 A2995 RMK AO2 SLP141 T00940094


Station Type Date Time Source
KFSM Decoded METAR 2019/10/18 10:53 UTC NOAA

FORT SMITH REGIONAL AIRPORT, AR, United States (KFSM) 35-20N 94-22W 140M
Oct 18, 2019 - 06:53 AM EDT / 2019.10.18 1053 UTC
Wind: from the ENE (060 degrees) at 5 MPH (4 KT):0
Visibility: 10 mile(s):0
Sky conditions: clear
Temperature: 48.9 F (9.4 C)
Dew Point: 48.9 F (9.4 C)
Relative Humidity: 100%
Pressure (altimeter): 29.95 in. Hg (1014 hPa)
ob: KFSM 181053Z 06004KT 10SM CLR 09/09 A2995 RMK AO2 SLP141 T00940094
cycle: 11

Station Type Date Time Source
KFSM TAF 2019/10/18 12:22 UTC NOAA

TAF KFSM 181120Z 1812/1912 09004KT P6SM SKC
FM181600 12009KT P6SM FEW050
FM190300 08004KT P6SM SKC
FM190900 07004KT P6SM BKN100

Example: see airport list